Sunset Beach, NC

9:59 PM EDT on October 31, 2014 (GMT -0400)
Sunset Ridge | Change Station
CLOSE
Current Station
Personal Weather Station
Location: Ocean Isle Beach, NC
Elevation: -7 ft
Nearby Weather Stations
Active Advisory: Special Statement

Elev -7 ft 33.90 °N, 78.49 °W | Updated 5 minutes ago

Clear
Clear
47.8 °F
Feels Like 48 °F
N
0.0
Wind Variable Wind from WSW

Today
High -- | Low -- °F
--% Chance of Precip.
Yesterday
High -- | Low -- °F
Precip. -- in
7:32 AM 6:22 PM
First Quarter, 61% visible
Pressure 29.78 in
Visibility 4.0 miles
Clouds Clear
Windchill 48 °F
Dew Point 47 °F
Humidity 97%
Rainfall 0.00 in
Snow Depth Not available.
UV 0 out of 12
Pollen 1.40 out of 12
Air Quality Not available.
Flu Activity Not available.
METAR KCRE 010153Z AUTO 00000KT 4SM BR CLR 10/09 A2978 RMK AO1 SLP085 T01000089

More Conditions Fewer Conditions

Pressure 29.78 in
Visibility 4.0 miles
Clouds Clear
Windchill 48 °F
Dew Point 47 °F
Humidity 97%
Rainfall 0.00 in
Snow Depth Not available.
UV 0 out of 12
Pollen 1.40 out of 12
Air Quality Not available.
Flu Activity Not available.
METAR KCRE 010153Z AUTO 00000KT 4SM BR CLR 10/09 A2978 RMK AO1 SLP085 T01000089

More Conditions Fewer Conditions

10-Day Weather Forecast

Almanac

Astronomy

Oct. 31, 2014 Rise Set
Actual Time
Civil Twilight
Nautical Twilight
Astronomical Twilight
Moon
Length of Visible Light
Length of Day
Tomorrow will be .
, % of the Moon is Illuminated

Today's Extremes

State Highs State Lows

Community

WunderPhotos

Upload Photos

1,766,810 photos uploaded!

WunderBlogs® & News

Nearby

Air Quality

  Air Quality AQ Index Pollutant
Not available.

Snow Depth

Station Depth Elevation

Earthquake Activity

City Distance Mag. Time & Date
Minimum magnitude displayed is 2.5.

Coastal Water Temperatures

Place Temperature

Nearby Weather Stations